Terminal Aerodrome Forecast
Issued by NWS

Home | Current Version | Previous Version | Text Only | Print | Product List | Glossary On
Versions: 1 2 3 4 5 6 7 8 9 10 11 12 13 14 15 16 17 18 19 20
000
FTUS41 KGYX 280909 AAB
TAFAUG
TAF AMD
KAUG 280909Z 2809/2906 36012G20KT P6SM BKN035
     FM281200 35014G24KT P6SM BKN050
     FM290000 33013G18KT P6SM OVC050 PROB30 2900/2903 P6SM -RA
      OVC050=

USA.gov is the U.S. government's official web portal to all federal, state and local government web resources and services.